sensor_id;sensor_type;location;lat;lon;timestamp;temperature;humidity
29353;DHT22;16344;50.364;8.944;2023-08-08T00:01:22;14.80;1.00
29353;DHT22;16344;50.364;8.944;2023-08-08T00:03:48;14.80;1.00
29353;DHT22;16344;50.364;8.944;2023-08-08T00:06:13;14.90;1.00
29353;DHT22;16344;50.364;8.944;2023-08-08T00:08:39;14.90;1.00
29353;DHT22;16344;50.364;8.944;2023-08-08T00:11:05;14.80;1.00
29353;DHT22;16344;50.364;8.944;2023-08-08T00:13:30;14.80;1.00
29353;DHT22;16344;50.364;8.944;2023-08-08T00:15:56;14.80;1.00
29353;DHT22;16344;50.364;8.944;2023-08-08T00:18:22;14.80;1.00
29353;DHT22;16344;50.364;8.944;2023-08-08T00:20:47;14.70;1.00
29353;DHT22;16344;50.364;8.944;2023-08-08T00:23:13;14.80;1.00
29353;DHT22;16344;50.364;8.944;2023-08-08T00:25:38;14.80;1.00
29353;DHT22;16344;50.364;8.944;2023-08-08T00:28:04;14.80;1.00
29353;DHT22;16344;50.364;8.944;2023-08-08T00:30:29;14.90;1.00
29353;DHT22;16344;50.364;8.944;2023-08-08T00:32:55;14.80;1.00
29353;DHT22;16344;50.364;8.944;2023-08-08T00:35:20;14.80;1.00
29353;DHT22;16344;50.364;8.944;2023-08-08T00:37:46;14.80;1.00
29353;DHT22;16344;50.364;8.944;2023-08-08T00:40:11;14.80;1.00
29353;DHT22;16344;50.364;8.944;2023-08-08T00:42:37;14.80;1.00
29353;DHT22;16344;50.364;8.944;2023-08-08T00:45:03;14.70;1.00
29353;DHT22;16344;50.364;8.944;2023-08-08T00:47:31;14.70;1.00
29353;DHT22;16344;50.364;8.944;2023-08-08T00:49:57;14.70;1.00
29353;DHT22;16344;50.364;8.944;2023-08-08T00:52:22;14.60;1.00
29353;DHT22;16344;50.364;8.944;2023-08-08T00:54:48;14.60;1.00
29353;DHT22;16344;50.364;8.944;2023-08-08T00:57:13;14.70;1.00
29353;DHT22;16344;50.364;8.944;2023-08-08T00:59:39;14.70;1.00
29353;DHT22;16344;50.364;8.944;2023-08-08T01:02:05;14.70;1.00
29353;DHT22;16344;50.364;8.944;2023-08-08T01:04:30;14.70;1.00
29353;DHT22;16344;50.364;8.944;2023-08-08T01:07:24;14.70;1.00
29353;DHT22;16344;50.364;8.944;2023-08-08T01:10:05;14.70;1.00
29353;DHT22;16344;50.364;8.944;2023-08-08T01:12:44;14.70;1.00
29353;DHT22;16344;50.364;8.944;2023-08-08T01:15:10;14.60;1.00
29353;DHT22;16344;50.364;8.944;2023-08-08T01:17:37;14.60;1.00
29353;DHT22;16344;50.364;8.944;2023-08-08T01:20:04;14.60;1.00
29353;DHT22;16344;50.364;8.944;2023-08-08T01:22:37;14.60;1.00
29353;DHT22;16344;50.364;8.944;2023-08-08T01:25:04;14.50;1.00
29353;DHT22;16344;50.364;8.944;2023-08-08T01:27:30;14.50;1.00
29353;DHT22;16344;50.364;8.944;2023-08-08T01:29:55;14.50;1.00
29353;DHT22;16344;50.364;8.944;2023-08-08T01:32:21;14.60;1.00
29353;DHT22;16344;50.364;8.944;2023-08-08T01:34:47;14.60;1.00
29353;DHT22;16344;50.364;8.944;2023-08-08T01:37:39;14.50;1.00
29353;DHT22;16344;50.364;8.944;2023-08-08T01:40:08;14.50;1.00
29353;DHT22;16344;50.364;8.944;2023-08-08T01:42:35;14.50;1.00
29353;DHT22;16344;50.364;8.944;2023-08-08T01:45:01;14.50;1.00
29353;DHT22;16344;50.364;8.944;2023-08-08T01:47:27;14.40;1.00
29353;DHT22;16344;50.364;8.944;2023-08-08T01:49:53;14.40;1.00
29353;DHT22;16344;50.364;8.944;2023-08-08T01:52:18;14.40;1.00
29353;DHT22;16344;50.364;8.944;2023-08-08T01:54:44;14.40;1.00
29353;DHT22;16344;50.364;8.944;2023-08-08T01:57:10;14.30;1.00
29353;DHT22;16344;50.364;8.944;2023-08-08T01:59:35;14.30;1.00
29353;DHT22;16344;50.364;8.944;2023-08-08T02:02:01;14.30;1.00
29353;DHT22;16344;50.364;8.944;2023-08-08T02:04:26;14.30;1.00
29353;DHT22;16344;50.364;8.944;2023-08-08T02:06:52;14.20;1.00
29353;DHT22;16344;50.364;8.944;2023-08-08T02:09:17;14.20;1.00
29353;DHT22;16344;50.364;8.944;2023-08-08T02:11:43;14.20;1.00
29353;DHT22;16344;50.364;8.944;2023-08-08T02:14:08;14.20;1.00
29353;DHT22;16344;50.364;8.944;2023-08-08T02:16:34;14.20;1.00
29353;DHT22;16344;50.364;8.944;2023-08-08T02:19:00;14.10;1.00
29353;DHT22;16344;50.364;8.944;2023-08-08T02:21:25;14.20;1.00
29353;DHT22;16344;50.364;8.944;2023-08-08T02:23:51;14.20;1.00
29353;DHT22;16344;50.364;8.944;2023-08-08T02:26:16;14.20;1.00
29353;DHT22;16344;50.364;8.944;2023-08-08T02:28:42;14.20;1.00
29353;DHT22;16344;50.364;8.944;2023-08-08T02:31:08;14.10;1.00
29353;DHT22;16344;50.364;8.944;2023-08-08T02:33:34;14.10;1.00
29353;DHT22;16344;50.364;8.944;2023-08-08T02:35:59;14.20;1.00
29353;DHT22;16344;50.364;8.944;2023-08-08T02:38:25;14.10;1.00
29353;DHT22;16344;50.364;8.944;2023-08-08T02:40:50;14.10;1.00
29353;DHT22;16344;50.364;8.944;2023-08-08T02:43:16;14.20;1.00
29353;DHT22;16344;50.364;8.944;2023-08-08T02:45:42;14.10;1.00
29353;DHT22;16344;50.364;8.944;2023-08-08T02:48:07;14.10;1.00
29353;DHT22;16344;50.364;8.944;2023-08-08T02:50:33;14.20;1.00
29353;DHT22;16344;50.364;8.944;2023-08-08T02:52:58;14.20;1.00
29353;DHT22;16344;50.364;8.944;2023-08-08T02:55:24;14.30;1.00
29353;DHT22;16344;50.364;8.944;2023-08-08T02:57:49;14.30;1.00
29353;DHT22;16344;50.364;8.944;2023-08-08T03:00:15;14.30;1.00
29353;DHT22;16344;50.364;8.944;2023-08-08T03:02:40;14.20;1.00
29353;DHT22;16344;50.364;8.944;2023-08-08T03:05:06;14.10;1.00
29353;DHT22;16344;50.364;8.944;2023-08-08T03:07:32;14.20;1.00
29353;DHT22;16344;50.364;8.944;2023-08-08T03:09:57;14.20;1.00
29353;DHT22;16344;50.364;8.944;2023-08-08T03:12:23;14.10;1.00
29353;DHT22;16344;50.364;8.944;2023-08-08T03:14:49;14.10;1.00
29353;DHT22;16344;50.364;8.944;2023-08-08T03:17:14;14.20;1.00
29353;DHT22;16344;50.364;8.944;2023-08-08T03:19:40;14.20;1.00
29353;DHT22;16344;50.364;8.944;2023-08-08T03:22:05;14.00;1.00
29353;DHT22;16344;50.364;8.944;2023-08-08T03:24:31;14.10;1.00
29353;DHT22;16344;50.364;8.944;2023-08-08T03:26:56;14.10;1.00
29353;DHT22;16344;50.364;8.944;2023-08-08T03:29:22;14.10;1.00
29353;DHT22;16344;50.364;8.944;2023-08-08T03:31:47;14.00;1.00
29353;DHT22;16344;50.364;8.944;2023-08-08T03:34:13;14.00;1.00
29353;DHT22;16344;50.364;8.944;2023-08-08T03:36:38;13.90;1.00
29353;DHT22;16344;50.364;8.944;2023-08-08T03:39:04;13.90;1.00
29353;DHT22;16344;50.364;8.944;2023-08-08T03:41:29;14.00;1.00
29353;DHT22;16344;50.364;8.944;2023-08-08T03:43:55;13.90;1.00
29353;DHT22;16344;50.364;8.944;2023-08-08T03:46:21;13.80;1.00
29353;DHT22;16344;50.364;8.944;2023-08-08T03:48:47;13.90;1.00
29353;DHT22;16344;50.364;8.944;2023-08-08T03:51:12;13.90;1.00
29353;DHT22;16344;50.364;8.944;2023-08-08T03:53:38;13.90;1.00
29353;DHT22;16344;50.364;8.944;2023-08-08T03:56:03;13.90;1.00
29353;DHT22;16344;50.364;8.944;2023-08-08T03:58:29;14.00;1.00
29353;DHT22;16344;50.364;8.944;2023-08-08T04:00:54;14.00;1.00
29353;DHT22;16344;50.364;8.944;2023-08-08T04:03:20;14.00;1.00
29353;DHT22;16344;50.364;8.944;2023-08-08T04:05:48;14.00;1.00
29353;DHT22;16344;50.364;8.944;2023-08-08T04:08:14;14.10;1.00
29353;DHT22;16344;50.364;8.944;2023-08-08T04:10:40;14.00;1.00
29353;DHT22;16344;50.364;8.944;2023-08-08T04:13:06;14.00;1.00
29353;DHT22;16344;50.364;8.944;2023-08-08T04:15:31;14.00;1.00
29353;DHT22;16344;50.364;8.944;2023-08-08T04:17:57;14.00;1.00
29353;DHT22;16344;50.364;8.944;2023-08-08T04:20:22;14.00;1.00
29353;DHT22;16344;50.364;8.944;2023-08-08T04:22:49;14.00;1.00
29353;DHT22;16344;50.364;8.944;2023-08-08T04:25:15;13.90;1.00
29353;DHT22;16344;50.364;8.944;2023-08-08T04:27:40;13.90;1.00
29353;DHT22;16344;50.364;8.944;2023-08-08T04:30:06;13.90;1.00
29353;DHT22;16344;50.364;8.944;2023-08-08T04:32:32;14.00;1.00
29353;DHT22;16344;50.364;8.944;2023-08-08T04:34:58;14.00;1.00
29353;DHT22;16344;50.364;8.944;2023-08-08T04:37:24;14.00;1.00
29353;DHT22;16344;50.364;8.944;2023-08-08T04:39:49;14.10;1.00
29353;DHT22;16344;50.364;8.944;2023-08-08T04:42:15;14.40;1.00
29353;DHT22;16344;50.364;8.944;2023-08-08T04:44:40;14.50;1.00
29353;DHT22;16344;50.364;8.944;2023-08-08T04:47:06;14.70;1.00
29353;DHT22;16344;50.364;8.944;2023-08-08T04:49:31;14.60;1.00
29353;DHT22;16344;50.364;8.944;2023-08-08T04:51:57;14.70;1.00
29353;DHT22;16344;50.364;8.944;2023-08-08T04:54:22;14.80;1.00
29353;DHT22;16344;50.364;8.944;2023-08-08T04:56:48;15.10;1.00
29353;DHT22;16344;50.364;8.944;2023-08-08T04:59:13;15.40;1.00
29353;DHT22;16344;50.364;8.944;2023-08-08T05:01:39;15.60;1.00
29353;DHT22;16344;50.364;8.944;2023-08-08T05:04:04;15.80;1.00
29353;DHT22;16344;50.364;8.944;2023-08-08T05:06:30;16.10;99.90
29353;DHT22;16344;50.364;8.944;2023-08-08T05:08:55;16.50;99.90
29353;DHT22;16344;50.364;8.944;2023-08-08T05:11:22;17.00;99.90
29353;DHT22;16344;50.364;8.944;2023-08-08T05:13:47;17.60;99.90
29353;DHT22;16344;50.364;8.944;2023-08-08T05:16:13;18.20;44.60
29353;DHT22;16344;50.364;8.944;2023-08-08T05:18:39;18.70;1.00
29353;DHT22;16344;50.364;8.944;2023-08-08T05:21:04;19.00;1.00
29353;DHT22;16344;50.364;8.944;2023-08-08T05:23:30;19.10;1.00
29353;DHT22;16344;50.364;8.944;2023-08-08T05:25:55;19.40;1.00
29353;DHT22;16344;50.364;8.944;2023-08-08T05:28:21;19.70;1.00
29353;DHT22;16344;50.364;8.944;2023-08-08T05:30:46;20.00;1.00
29353;DHT22;16344;50.364;8.944;2023-08-08T05:33:12;20.20;1.00
29353;DHT22;16344;50.364;8.944;2023-08-08T05:35:37;20.60;1.00
29353;DHT22;16344;50.364;8.944;2023-08-08T05:38:03;20.90;1.00
29353;DHT22;16344;50.364;8.944;2023-08-08T05:40:28;21.20;1.00
29353;DHT22;16344;50.364;8.944;2023-08-08T05:42:54;21.30;1.00
29353;DHT22;16344;50.364;8.944;2023-08-08T05:45:20;21.40;1.00
29353;DHT22;16344;50.364;8.944;2023-08-08T05:47:45;21.60;1.00
29353;DHT22;16344;50.364;8.944;2023-08-08T05:50:11;21.40;1.00
29353;DHT22;16344;50.364;8.944;2023-08-08T05:52:36;21.00;1.00
29353;DHT22;16344;50.364;8.944;2023-08-08T05:55:02;20.40;1.00
29353;DHT22;16344;50.364;8.944;2023-08-08T05:57:27;19.70;1.00
29353;DHT22;16344;50.364;8.944;2023-08-08T05:59:53;19.60;1.00
29353;DHT22;16344;50.364;8.944;2023-08-08T06:02:18;19.70;1.00
29353;DHT22;16344;50.364;8.944;2023-08-08T06:04:44;20.30;1.00
29353;DHT22;16344;50.364;8.944;2023-08-08T06:07:10;20.80;1.00
29353;DHT22;16344;50.364;8.944;2023-08-08T06:09:36;21.30;1.00
29353;DHT22;16344;50.364;8.944;2023-08-08T06:12:03;21.80;1.00
29353;DHT22;16344;50.364;8.944;2023-08-08T06:14:30;22.10;1.00
29353;DHT22;16344;50.364;8.944;2023-08-08T06:16:56;22.80;1.00
29353;DHT22;16344;50.364;8.944;2023-08-08T06:19:21;22.90;1.00
29353;DHT22;16344;50.364;8.944;2023-08-08T06:21:47;22.80;1.00
29353;DHT22;16344;50.364;8.944;2023-08-08T06:24:12;22.30;1.00
29353;DHT22;16344;50.364;8.944;2023-08-08T06:26:39;22.60;1.00
29353;DHT22;16344;50.364;8.944;2023-08-08T06:29:04;22.90;1.00
29353;DHT22;16344;50.364;8.944;2023-08-08T06:31:30;23.00;1.00
29353;DHT22;16344;50.364;8.944;2023-08-08T06:33:55;22.80;1.00
29353;DHT22;16344;50.364;8.944;2023-08-08T06:36:21;22.70;1.00
29353;DHT22;16344;50.364;8.944;2023-08-08T06:38:47;22.90;1.00
29353;DHT22;16344;50.364;8.944;2023-08-08T06:41:12;22.90;1.00
29353;DHT22;16344;50.364;8.944;2023-08-08T06:43:38;22.70;1.00
29353;DHT22;16344;50.364;8.944;2023-08-08T06:46:04;22.30;1.00
29353;DHT22;16344;50.364;8.944;2023-08-08T06:48:30;21.90;1.00
29353;DHT22;16344;50.364;8.944;2023-08-08T06:50:55;21.90;1.00
29353;DHT22;16344;50.364;8.944;2023-08-08T06:53:21;22.00;1.00
29353;DHT22;16344;50.364;8.944;2023-08-08T06:55:46;22.10;1.00
29353;DHT22;16344;50.364;8.944;2023-08-08T06:58:12;22.00;1.00
29353;DHT22;16344;50.364;8.944;2023-08-08T07:00:37;22.00;1.00
29353;DHT22;16344;50.364;8.944;2023-08-08T07:03:03;21.80;1.00
29353;DHT22;16344;50.364;8.944;2023-08-08T07:05:28;21.30;1.00
29353;DHT22;16344;50.364;8.944;2023-08-08T07:07:54;21.30;1.00
29353;DHT22;16344;50.364;8.944;2023-08-08T07:10:20;21.40;1.00
29353;DHT22;16344;50.364;8.944;2023-08-08T07:12:45;21.40;1.00
29353;DHT22;16344;50.364;8.944;2023-08-08T07:15:11;21.30;1.00
29353;DHT22;16344;50.364;8.944;2023-08-08T07:17:37;21.20;1.00
29353;DHT22;16344;50.364;8.944;2023-08-08T07:20:03;21.10;1.00
29353;DHT22;16344;50.364;8.944;2023-08-08T07:22:31;21.10;1.00
29353;DHT22;16344;50.364;8.944;2023-08-08T07:24:57;21.30;1.00
29353;DHT22;16344;50.364;8.944;2023-08-08T07:27:23;21.60;1.00
29353;DHT22;16344;50.364;8.944;2023-08-08T07:29:48;21.80;1.00
29353;DHT22;16344;50.364;8.944;2023-08-08T07:32:14;22.00;1.00
29353;DHT22;16344;50.364;8.944;2023-08-08T07:34:39;22.20;1.00
29353;DHT22;16344;50.364;8.944;2023-08-08T07:37:05;22.40;1.00
29353;DHT22;16344;50.364;8.944;2023-08-08T07:39:31;22.60;1.00
29353;DHT22;16344;50.364;8.944;2023-08-08T07:41:56;22.70;1.00
29353;DHT22;16344;50.364;8.944;2023-08-08T07:44:22;22.70;1.00
29353;DHT22;16344;50.364;8.944;2023-08-08T07:46:48;22.80;1.00
29353;DHT22;16344;50.364;8.944;2023-08-08T07:49:14;22.80;1.00
29353;DHT22;16344;50.364;8.944;2023-08-08T07:51:39;22.80;1.00
29353;DHT22;16344;50.364;8.944;2023-08-08T07:54:05;22.40;1.00
29353;DHT22;16344;50.364;8.944;2023-08-08T07:56:34;22.30;1.00
29353;DHT22;16344;50.364;8.944;2023-08-08T07:59:00;22.40;1.00
29353;DHT22;16344;50.364;8.944;2023-08-08T08:01:27;22.50;1.00
29353;DHT22;16344;50.364;8.944;2023-08-08T08:03:52;22.60;1.00
29353;DHT22;16344;50.364;8.944;2023-08-08T08:06:18;22.60;1.00
29353;DHT22;16344;50.364;8.944;2023-08-08T08:08:43;22.70;1.00
29353;DHT22;16344;50.364;8.944;2023-08-08T08:11:09;22.70;1.00
29353;DHT22;16344;50.364;8.944;2023-08-08T08:13:34;22.50;1.00
29353;DHT22;16344;50.364;8.944;2023-08-08T08:16:00;22.30;1.00
29353;DHT22;16344;50.364;8.944;2023-08-08T08:18:25;22.10;1.00
29353;DHT22;16344;50.364;8.944;2023-08-08T08:20:51;22.00;1.00
29353;DHT22;16344;50.364;8.944;2023-08-08T08:23:16;21.80;1.00
29353;DHT22;16344;50.364;8.944;2023-08-08T08:25:42;21.50;1.00
29353;DHT22;16344;50.364;8.944;2023-08-08T08:28:08;21.30;1.00
29353;DHT22;16344;50.364;8.944;2023-08-08T08:30:33;21.60;1.00
29353;DHT22;16344;50.364;8.944;2023-08-08T08:32:59;21.60;1.00
29353;DHT22;16344;50.364;8.944;2023-08-08T08:35:25;21.70;1.00
29353;DHT22;16344;50.364;8.944;2023-08-08T08:37:51;21.70;1.00
29353;DHT22;16344;50.364;8.944;2023-08-08T08:40:17;21.70;1.00
29353;DHT22;16344;50.364;8.944;2023-08-08T08:42:44;21.70;1.00
29353;DHT22;16344;50.364;8.944;2023-08-08T08:45:11;21.90;1.00
29353;DHT22;16344;50.364;8.944;2023-08-08T08:47:37;22.00;1.00
29353;DHT22;16344;50.364;8.944;2023-08-08T08:50:07;22.00;1.00
29353;DHT22;16344;50.364;8.944;2023-08-08T08:52:32;21.70;1.00
29353;DHT22;16344;50.364;8.944;2023-08-08T08:54:58;21.50;1.00
29353;DHT22;16344;50.364;8.944;2023-08-08T08:57:24;21.40;1.00
29353;DHT22;16344;50.364;8.944;2023-08-08T08:59:50;21.30;1.00
29353;DHT22;16344;50.364;8.944;2023-08-08T09:02:17;21.10;1.00
29353;DHT22;16344;50.364;8.944;2023-08-08T09:04:43;21.00;1.00
29353;DHT22;16344;50.364;8.944;2023-08-08T09:07:10;20.80;1.00
29353;DHT22;16344;50.364;8.944;2023-08-08T09:09:36;20.80;1.00
29353;DHT22;16344;50.364;8.944;2023-08-08T09:12:03;20.80;1.00
29353;DHT22;16344;50.364;8.944;2023-08-08T09:14:30;21.10;1.00
29353;DHT22;16344;50.364;8.944;2023-08-08T09:16:56;21.10;1.00
29353;DHT22;16344;50.364;8.944;2023-08-08T09:19:23;21.10;1.00
29353;DHT22;16344;50.364;8.944;2023-08-08T09:21:50;21.20;1.00
29353;DHT22;16344;50.364;8.944;2023-08-08T09:24:15;21.20;1.00
29353;DHT22;16344;50.364;8.944;2023-08-08T09:26:42;21.30;1.00
29353;DHT22;16344;50.364;8.944;2023-08-08T09:29:09;21.40;1.00
29353;DHT22;16344;50.364;8.944;2023-08-08T09:31:35;21.30;1.00
29353;DHT22;16344;50.364;8.944;2023-08-08T09:34:02;21.30;1.00
29353;DHT22;16344;50.364;8.944;2023-08-08T09:36:28;21.30;1.00
29353;DHT22;16344;50.364;8.944;2023-08-08T09:38:55;21.40;1.00
29353;DHT22;16344;50.364;8.944;2023-08-08T09:41:22;21.30;1.00
29353;DHT22;16344;50.364;8.944;2023-08-08T09:43:48;20.90;1.00
29353;DHT22;16344;50.364;8.944;2023-08-08T09:46:14;20.90;1.00
29353;DHT22;16344;50.364;8.944;2023-08-08T09:48:41;20.90;1.00
29353;DHT22;16344;50.364;8.944;2023-08-08T09:51:07;20.90;1.00
29353;DHT22;16344;50.364;8.944;2023-08-08T09:53:34;21.00;1.00
29353;DHT22;16344;50.364;8.944;2023-08-08T09:56:03;20.80;1.00
29353;DHT22;16344;50.364;8.944;2023-08-08T09:58:29;20.80;1.00
29353;DHT22;16344;50.364;8.944;2023-08-08T10:00:54;20.80;1.00
29353;DHT22;16344;50.364;8.944;2023-08-08T10:03:20;20.80;1.00
29353;DHT22;16344;50.364;8.944;2023-08-08T10:05:46;20.70;1.00
29353;DHT22;16344;50.364;8.944;2023-08-08T10:08:14;20.80;1.00
29353;DHT22;16344;50.364;8.944;2023-08-08T10:10:44;20.90;1.00
29353;DHT22;16344;50.364;8.944;2023-08-08T10:13:18;21.10;1.00
29353;DHT22;16344;50.364;8.944;2023-08-08T10:15:44;21.30;1.00
29353;DHT22;16344;50.364;8.944;2023-08-08T10:18:09;21.40;1.00
29353;DHT22;16344;50.364;8.944;2023-08-08T10:20:36;21.50;1.00
29353;DHT22;16344;50.364;8.944;2023-08-08T10:23:02;21.40;1.00
29353;DHT22;16344;50.364;8.944;2023-08-08T10:25:30;21.40;1.00
29353;DHT22;16344;50.364;8.944;2023-08-08T10:28:10;21.40;1.00
29353;DHT22;16344;50.364;8.944;2023-08-08T10:30:51;21.20;1.00
29353;DHT22;16344;50.364;8.944;2023-08-08T10:33:22;21.30;1.00
29353;DHT22;16344;50.364;8.944;2023-08-08T10:36:01;21.50;1.00
29353;DHT22;16344;50.364;8.944;2023-08-08T10:38:45;21.50;1.00
29353;DHT22;16344;50.364;8.944;2023-08-08T10:41:15;21.30;1.00
29353;DHT22;16344;50.364;8.944;2023-08-08T10:43:57;21.30;1.00
29353;DHT22;16344;50.364;8.944;2023-08-08T10:46:32;21.40;1.00
29353;DHT22;16344;50.364;8.944;2023-08-08T10:49:04;21.30;1.00
29353;DHT22;16344;50.364;8.944;2023-08-08T10:51:36;21.30;1.00
29353;DHT22;16344;50.364;8.944;2023-08-08T10:54:06;21.30;1.00
29353;DHT22;16344;50.364;8.944;2023-08-08T10:56:32;21.30;1.00
29353;DHT22;16344;50.364;8.944;2023-08-08T10:58:57;21.20;1.00
29353;DHT22;16344;50.364;8.944;2023-08-08T11:01:26;21.20;1.00
29353;DHT22;16344;50.364;8.944;2023-08-08T11:03:52;21.20;1.00
29353;DHT22;16344;50.364;8.944;2023-08-08T11:06:19;21.20;1.00
29353;DHT22;16344;50.364;8.944;2023-08-08T11:08:45;21.20;1.00
29353;DHT22;16344;50.364;8.944;2023-08-08T11:11:11;21.20;1.00
29353;DHT22;16344;50.364;8.944;2023-08-08T11:13:37;21.30;1.00
29353;DHT22;16344;50.364;8.944;2023-08-08T11:16:03;21.40;1.00
29353;DHT22;16344;50.364;8.944;2023-08-08T11:18:29;21.50;1.00
29353;DHT22;16344;50.364;8.944;2023-08-08T11:20:55;21.70;1.00
29353;DHT22;16344;50.364;8.944;2023-08-08T11:23:20;21.80;1.00
29353;DHT22;16344;50.364;8.944;2023-08-08T11:25:46;21.70;1.00
29353;DHT22;16344;50.364;8.944;2023-08-08T11:28:12;21.80;1.00
29353;DHT22;16344;50.364;8.944;2023-08-08T11:30:42;22.00;1.00
29353;DHT22;16344;50.364;8.944;2023-08-08T11:33:08;22.10;1.00
29353;DHT22;16344;50.364;8.944;2023-08-08T11:35:34;22.20;1.00
29353;DHT22;16344;50.364;8.944;2023-08-08T11:38:00;22.10;1.00
29353;DHT22;16344;50.364;8.944;2023-08-08T11:40:28;22.20;1.00
29353;DHT22;16344;50.364;8.944;2023-08-08T11:42:55;22.20;1.00
29353;DHT22;16344;50.364;8.944;2023-08-08T11:45:25;22.00;1.00
29353;DHT22;16344;50.364;8.944;2023-08-08T11:47:52;22.00;1.00
29353;DHT22;16344;50.364;8.944;2023-08-08T11:50:20;22.00;1.00
29353;DHT22;16344;50.364;8.944;2023-08-08T11:52:46;22.10;1.00
29353;DHT22;16344;50.364;8.944;2023-08-08T11:55:12;22.20;1.00
29353;DHT22;16344;50.364;8.944;2023-08-08T11:57:41;22.20;1.00
29353;DHT22;16344;50.364;8.944;2023-08-08T12:00:10;22.20;1.00
29353;DHT22;16344;50.364;8.944;2023-08-08T12:02:41;22.30;1.00
29353;DHT22;16344;50.364;8.944;2023-08-08T12:05:12;22.30;1.00
29353;DHT22;16344;50.364;8.944;2023-08-08T12:07:40;22.40;1.00
29353;DHT22;16344;50.364;8.944;2023-08-08T12:10:17;22.30;1.00
29353;DHT22;16344;50.364;8.944;2023-08-08T12:12:43;22.30;1.00
29353;DHT22;16344;50.364;8.944;2023-08-08T12:15:09;22.50;1.00
29353;DHT22;16344;50.364;8.944;2023-08-08T12:17:36;22.60;1.00
29353;DHT22;16344;50.364;8.944;2023-08-08T12:20:06;22.70;1.00
29353;DHT22;16344;50.364;8.944;2023-08-08T12:22:32;22.70;1.00
29353;DHT22;16344;50.364;8.944;2023-08-08T12:24:58;22.70;1.00
29353;DHT22;16344;50.364;8.944;2023-08-08T12:27:23;22.60;1.00
29353;DHT22;16344;50.364;8.944;2023-08-08T12:29:49;22.50;1.00
29353;DHT22;16344;50.364;8.944;2023-08-08T12:32:14;22.50;1.00
29353;DHT22;16344;50.364;8.944;2023-08-08T12:34:40;22.50;1.00
29353;DHT22;16344;50.364;8.944;2023-08-08T12:37:05;22.60;1.00
29353;DHT22;16344;50.364;8.944;2023-08-08T12:39:31;22.60;1.00
29353;DHT22;16344;50.364;8.944;2023-08-08T12:41:56;22.50;1.00
29353;DHT22;16344;50.364;8.944;2023-08-08T12:44:22;22.30;1.00
29353;DHT22;16344;50.364;8.944;2023-08-08T12:46:48;22.40;1.00
29353;DHT22;16344;50.364;8.944;2023-08-08T12:49:14;22.40;1.00
29353;DHT22;16344;50.364;8.944;2023-08-08T12:51:39;22.30;1.00
29353;DHT22;16344;50.364;8.944;2023-08-08T12:54:05;22.20;1.00
29353;DHT22;16344;50.364;8.944;2023-08-08T12:56:31;22.10;1.00
29353;DHT22;16344;50.364;8.944;2023-08-08T12:58:56;21.90;1.00
29353;DHT22;16344;50.364;8.944;2023-08-08T13:01:22;21.70;1.00
29353;DHT22;16344;50.364;8.944;2023-08-08T13:03:47;21.60;1.00
29353;DHT22;16344;50.364;8.944;2023-08-08T13:06:13;21.60;1.00
29353;DHT22;16344;50.364;8.944;2023-08-08T13:08:39;21.50;1.00
29353;DHT22;16344;50.364;8.944;2023-08-08T13:11:04;21.50;1.00
29353;DHT22;16344;50.364;8.944;2023-08-08T13:13:30;21.40;1.00
29353;DHT22;16344;50.364;8.944;2023-08-08T13:15:56;21.30;1.00
29353;DHT22;16344;50.364;8.944;2023-08-08T13:18:22;21.20;1.00
29353;DHT22;16344;50.364;8.944;2023-08-08T13:20:48;21.00;1.00
29353;DHT22;16344;50.364;8.944;2023-08-08T13:23:13;20.90;1.00
29353;DHT22;16344;50.364;8.944;2023-08-08T13:25:39;20.80;1.00
29353;DHT22;16344;50.364;8.944;2023-08-08T13:28:06;20.80;1.00
29353;DHT22;16344;50.364;8.944;2023-08-08T13:30:32;20.80;1.00
29353;DHT22;16344;50.364;8.944;2023-08-08T13:32:58;21.00;1.00
29353;DHT22;16344;50.364;8.944;2023-08-08T13:35:24;21.00;1.00
29353;DHT22;16344;50.364;8.944;2023-08-08T13:37:49;21.00;1.00
29353;DHT22;16344;50.364;8.944;2023-08-08T13:40:17;21.10;1.00
29353;DHT22;16344;50.364;8.944;2023-08-08T13:42:43;20.80;1.00
29353;DHT22;16344;50.364;8.944;2023-08-08T13:45:17;20.80;1.00
29353;DHT22;16344;50.364;8.944;2023-08-08T13:47:42;20.60;1.00
29353;DHT22;16344;50.364;8.944;2023-08-08T13:50:08;20.60;1.00
29353;DHT22;16344;50.364;8.944;2023-08-08T13:52:34;20.60;1.00
29353;DHT22;16344;50.364;8.944;2023-08-08T13:54:59;20.80;1.00
29353;DHT22;16344;50.364;8.944;2023-08-08T13:57:25;20.70;1.00
29353;DHT22;16344;50.364;8.944;2023-08-08T13:59:51;20.70;1.00
29353;DHT22;16344;50.364;8.944;2023-08-08T14:02:16;20.80;1.00
29353;DHT22;16344;50.364;8.944;2023-08-08T14:04:45;20.80;1.00
29353;DHT22;16344;50.364;8.944;2023-08-08T14:07:11;20.90;1.00
29353;DHT22;16344;50.364;8.944;2023-08-08T14:09:36;20.90;1.00
29353;DHT22;16344;50.364;8.944;2023-08-08T14:12:02;20.90;1.00
29353;DHT22;16344;50.364;8.944;2023-08-08T14:14:28;21.00;1.00
29353;DHT22;16344;50.364;8.944;2023-08-08T14:16:54;21.00;1.00
29353;DHT22;16344;50.364;8.944;2023-08-08T14:19:19;20.90;1.00
29353;DHT22;16344;50.364;8.944;2023-08-08T14:21:45;20.90;1.00
29353;DHT22;16344;50.364;8.944;2023-08-08T14:24:10;20.90;1.00
29353;DHT22;16344;50.364;8.944;2023-08-08T14:26:36;20.90;1.00
29353;DHT22;16344;50.364;8.944;2023-08-08T14:29:01;20.70;1.00
29353;DHT22;16344;50.364;8.944;2023-08-08T14:31:27;20.70;1.00
29353;DHT22;16344;50.364;8.944;2023-08-08T14:33:53;20.70;1.00
29353;DHT22;16344;50.364;8.944;2023-08-08T14:36:18;20.50;1.00
29353;DHT22;16344;50.364;8.944;2023-08-08T14:38:44;20.40;1.00
29353;DHT22;16344;50.364;8.944;2023-08-08T14:41:09;20.20;1.00
29353;DHT22;16344;50.364;8.944;2023-08-08T14:43:35;20.10;1.00
29353;DHT22;16344;50.364;8.944;2023-08-08T14:46:00;20.20;1.00
29353;DHT22;16344;50.364;8.944;2023-08-08T14:48:26;20.00;1.00
29353;DHT22;16344;50.364;8.944;2023-08-08T14:50:52;20.10;1.00
29353;DHT22;16344;50.364;8.944;2023-08-08T14:53:18;20.00;1.00
29353;DHT22;16344;50.364;8.944;2023-08-08T14:55:43;19.90;1.00
29353;DHT22;16344;50.364;8.944;2023-08-08T14:58:09;19.90;1.00
29353;DHT22;16344;50.364;8.944;2023-08-08T15:00:34;19.90;1.00
29353;DHT22;16344;50.364;8.944;2023-08-08T15:03:00;19.90;1.00
29353;DHT22;16344;50.364;8.944;2023-08-08T15:05:25;19.90;1.00
29353;DHT22;16344;50.364;8.944;2023-08-08T15:07:51;19.90;1.00
29353;DHT22;16344;50.364;8.944;2023-08-08T15:10:16;19.90;1.00
29353;DHT22;16344;50.364;8.944;2023-08-08T15:12:42;19.90;1.00
29353;DHT22;16344;50.364;8.944;2023-08-08T15:15:08;20.00;1.00
29353;DHT22;16344;50.364;8.944;2023-08-08T15:17:34;20.00;1.00
29353;DHT22;16344;50.364;8.944;2023-08-08T15:20:02;20.10;1.00
29353;DHT22;16344;50.364;8.944;2023-08-08T15:22:29;20.10;1.00
29353;DHT22;16344;50.364;8.944;2023-08-08T15:24:55;20.10;1.00
29353;DHT22;16344;50.364;8.944;2023-08-08T15:27:20;20.10;1.00
29353;DHT22;16344;50.364;8.944;2023-08-08T15:29:46;20.10;1.00
29353;DHT22;16344;50.364;8.944;2023-08-08T15:32:11;20.10;1.00
29353;DHT22;16344;50.364;8.944;2023-08-08T15:34:37;20.20;1.00
29353;DHT22;16344;50.364;8.944;2023-08-08T15:37:03;20.30;1.00
29353;DHT22;16344;50.364;8.944;2023-08-08T15:39:28;20.30;1.00